sensor_id;sensor_type;location;lat;lon;timestamp;temperature;humidity
25933;DHT22;13731;51.166;4.474;2022-07-29T00:00:47;18.70;1.00
25933;DHT22;13731;51.166;4.474;2022-07-29T00:03:13;18.70;1.00
25933;DHT22;13731;51.166;4.474;2022-07-29T00:05:40;18.70;1.00
25933;DHT22;13731;51.166;4.474;2022-07-29T00:08:07;18.60;1.00
25933;DHT22;13731;51.166;4.474;2022-07-29T00:10:33;18.70;18.40
25933;DHT22;13731;51.166;4.474;2022-07-29T00:12:59;18.70;1.00
25933;DHT22;13731;51.166;4.474;2022-07-29T00:15:25;18.70;1.00
25933;DHT22;13731;51.166;4.474;2022-07-29T00:17:51;18.70;1.00
25933;DHT22;13731;51.166;4.474;2022-07-29T00:20:17;18.70;1.00
25933;DHT22;13731;51.166;4.474;2022-07-29T00:22:43;18.90;1.00
25933;DHT22;13731;51.166;4.474;2022-07-29T00:25:09;18.80;1.00
25933;DHT22;13731;51.166;4.474;2022-07-29T00:27:38;18.80;1.00
25933;DHT22;13731;51.166;4.474;2022-07-29T00:30:05;18.60;1.00
25933;DHT22;13731;51.166;4.474;2022-07-29T00:32:31;18.60;18.70
25933;DHT22;13731;51.166;4.474;2022-07-29T00:34:57;18.60;2.90
25933;DHT22;13731;51.166;4.474;2022-07-29T00:37:41;18.70;1.00
25933;DHT22;13731;51.166;4.474;2022-07-29T00:40:08;18.70;1.00
25933;DHT22;13731;51.166;4.474;2022-07-29T00:42:48;18.70;1.00
25933;DHT22;13731;51.166;4.474;2022-07-29T00:45:15;18.70;1.00
25933;DHT22;13731;51.166;4.474;2022-07-29T00:47:41;18.70;1.00
25933;DHT22;13731;51.166;4.474;2022-07-29T00:50:08;18.60;1.00
25933;DHT22;13731;51.166;4.474;2022-07-29T00:52:39;18.50;22.00
25933;DHT22;13731;51.166;4.474;2022-07-29T00:55:07;18.50;99.90
25933;DHT22;13731;51.166;4.474;2022-07-29T00:57:34;18.60;53.40
25933;DHT22;13731;51.166;4.474;2022-07-29T01:00:00;18.50;75.60
25933;DHT22;13731;51.166;4.474;2022-07-29T01:02:26;18.50;92.50
25933;DHT22;13731;51.166;4.474;2022-07-29T01:04:53;18.50;99.90
25933;DHT22;13731;51.166;4.474;2022-07-29T01:07:19;18.60;33.60
25933;DHT22;13731;51.166;4.474;2022-07-29T01:09:45;18.60;64.00
25933;DHT22;13731;51.166;4.474;2022-07-29T01:12:17;18.50;99.90
25933;DHT22;13731;51.166;4.474;2022-07-29T01:14:43;18.30;99.90
25933;DHT22;13731;51.166;4.474;2022-07-29T01:28:30;18.20;99.90
25933;DHT22;13731;51.166;4.474;2022-07-29T01:30:58;18.20;99.90
25933;DHT22;13731;51.166;4.474;2022-07-29T01:33:26;18.10;99.90
25933;DHT22;13731;51.166;4.474;2022-07-29T01:36:16;18.10;1.00
25933;DHT22;13731;51.166;4.474;2022-07-29T01:38:46;18.10;1.00
25933;DHT22;13731;51.166;4.474;2022-07-29T01:41:17;18.20;99.90
25933;DHT22;13731;51.166;4.474;2022-07-29T01:43:53;18.20;1.00
25933;DHT22;13731;51.166;4.474;2022-07-29T01:46:30;18.10;1.00
25933;DHT22;13731;51.166;4.474;2022-07-29T01:49:02;18.00;1.00
25933;DHT22;13731;51.166;4.474;2022-07-29T01:51:36;18.00;1.00
25933;DHT22;13731;51.166;4.474;2022-07-29T01:54:30;18.00;1.00
25933;DHT22;13731;51.166;4.474;2022-07-29T01:56:58;18.10;1.00
25933;DHT22;13731;51.166;4.474;2022-07-29T01:59:26;18.30;99.90
25933;DHT22;13731;51.166;4.474;2022-07-29T02:01:54;18.20;99.90
25933;DHT22;13731;51.166;4.474;2022-07-29T02:04:23;18.30;99.90
25933;DHT22;13731;51.166;4.474;2022-07-29T02:06:51;18.20;1.00
25933;DHT22;13731;51.166;4.474;2022-07-29T02:09:19;18.20;1.00
25933;DHT22;13731;51.166;4.474;2022-07-29T02:11:49;18.10;1.00
25933;DHT22;13731;51.166;4.474;2022-07-29T02:14:18;18.00;1.00
25933;DHT22;13731;51.166;4.474;2022-07-29T02:16:47;17.90;1.00
25933;DHT22;13731;51.166;4.474;2022-07-29T02:19:15;17.90;1.00
25933;DHT22;13731;51.166;4.474;2022-07-29T02:21:43;17.80;99.90
25933;DHT22;13731;51.166;4.474;2022-07-29T02:24:11;17.60;99.90
25933;DHT22;13731;51.166;4.474;2022-07-29T02:26:38;17.50;1.00
25933;DHT22;13731;51.166;4.474;2022-07-29T02:29:06;17.40;1.00
25933;DHT22;13731;51.166;4.474;2022-07-29T02:31:34;17.40;1.00
25933;DHT22;13731;51.166;4.474;2022-07-29T02:34:07;17.30;48.30
25933;DHT22;13731;51.166;4.474;2022-07-29T02:36:34;17.20;99.90
25933;DHT22;13731;51.166;4.474;2022-07-29T02:39:02;17.10;99.90
25933;DHT22;13731;51.166;4.474;2022-07-29T02:41:43;17.10;99.90
25933;DHT22;13731;51.166;4.474;2022-07-29T02:44:13;17.10;1.00
25933;DHT22;13731;51.166;4.474;2022-07-29T02:46:46;17.00;1.00
25933;DHT22;13731;51.166;4.474;2022-07-29T02:52:01;16.90;1.00
25933;DHT22;13731;51.166;4.474;2022-07-29T02:54:48;16.70;99.90
25933;DHT22;13731;51.166;4.474;2022-07-29T02:57:47;16.90;57.80
25933;DHT22;13731;51.166;4.474;2022-07-29T03:00:15;16.90;1.00
25933;DHT22;13731;51.166;4.474;2022-07-29T03:02:45;16.80;1.50
25933;DHT22;13731;51.166;4.474;2022-07-29T03:05:20;16.70;99.90
25933;DHT22;13731;51.166;4.474;2022-07-29T03:07:55;16.70;99.90
25933;DHT22;13731;51.166;4.474;2022-07-29T03:10:23;16.80;99.90
25933;DHT22;13731;51.166;4.474;2022-07-29T03:12:50;16.80;99.90
25933;DHT22;13731;51.166;4.474;2022-07-29T03:15:17;16.70;99.90
25933;DHT22;13731;51.166;4.474;2022-07-29T03:17:47;16.60;1.00
25933;DHT22;13731;51.166;4.474;2022-07-29T03:20:14;16.50;1.00
25933;DHT22;13731;51.166;4.474;2022-07-29T03:22:41;16.50;1.00
25933;DHT22;13731;51.166;4.474;2022-07-29T03:25:13;16.50;99.90
25933;DHT22;13731;51.166;4.474;2022-07-29T03:27:39;16.40;99.90
25933;DHT22;13731;51.166;4.474;2022-07-29T03:30:06;16.20;1.00
25933;DHT22;13731;51.166;4.474;2022-07-29T03:32:32;16.20;8.50
25933;DHT22;13731;51.166;4.474;2022-07-29T03:34:58;16.20;1.00
25933;DHT22;13731;51.166;4.474;2022-07-29T03:37:25;16.20;99.90
25933;DHT22;13731;51.166;4.474;2022-07-29T03:39:52;16.20;1.00
25933;DHT22;13731;51.166;4.474;2022-07-29T03:42:21;16.20;1.00
25933;DHT22;13731;51.166;4.474;2022-07-29T03:44:49;16.20;1.00
25933;DHT22;13731;51.166;4.474;2022-07-29T03:47:18;16.10;99.90
25933;DHT22;13731;51.166;4.474;2022-07-29T03:49:48;16.00;99.90
25933;DHT22;13731;51.166;4.474;2022-07-29T03:52:16;15.90;1.00
25933;DHT22;13731;51.166;4.474;2022-07-29T03:54:42;15.80;31.40
25933;DHT22;13731;51.166;4.474;2022-07-29T03:57:10;15.80;99.90
25933;DHT22;13731;51.166;4.474;2022-07-29T03:59:37;15.70;99.90
25933;DHT22;13731;51.166;4.474;2022-07-29T04:02:04;15.80;23.10
25933;DHT22;13731;51.166;4.474;2022-07-29T04:04:34;15.80;1.00
25933;DHT22;13731;51.166;4.474;2022-07-29T04:07:00;15.90;1.00
25933;DHT22;13731;51.166;4.474;2022-07-29T04:09:26;15.80;99.90
25933;DHT22;13731;51.166;4.474;2022-07-29T04:11:52;15.70;99.90
25933;DHT22;13731;51.166;4.474;2022-07-29T04:14:18;15.60;99.90
25933;DHT22;13731;51.166;4.474;2022-07-29T04:16:44;15.60;1.00
25933;DHT22;13731;51.166;4.474;2022-07-29T04:19:10;15.60;1.00
25933;DHT22;13731;51.166;4.474;2022-07-29T04:21:40;15.60;1.00
25933;DHT22;13731;51.166;4.474;2022-07-29T04:24:07;15.60;1.00
25933;DHT22;13731;51.166;4.474;2022-07-29T04:26:34;15.60;1.00
25933;DHT22;13731;51.166;4.474;2022-07-29T04:29:00;15.70;99.90
25933;DHT22;13731;51.166;4.474;2022-07-29T04:31:26;15.70;1.00
25933;DHT22;13731;51.166;4.474;2022-07-29T04:33:52;15.80;99.90
25933;DHT22;13731;51.166;4.474;2022-07-29T04:36:18;15.70;99.90
25933;DHT22;13731;51.166;4.474;2022-07-29T04:38:44;15.70;99.90
25933;DHT22;13731;51.166;4.474;2022-07-29T04:41:10;15.80;99.90
25933;DHT22;13731;51.166;4.474;2022-07-29T04:43:36;15.80;99.90
25933;DHT22;13731;51.166;4.474;2022-07-29T04:46:03;15.80;99.90
25933;DHT22;13731;51.166;4.474;2022-07-29T04:48:29;15.80;99.90
25933;DHT22;13731;51.166;4.474;2022-07-29T04:50:55;15.90;99.90
25933;DHT22;13731;51.166;4.474;2022-07-29T04:53:22;16.10;99.90
25933;DHT22;13731;51.166;4.474;2022-07-29T04:55:48;16.10;1.00
25933;DHT22;13731;51.166;4.474;2022-07-29T04:58:14;16.30;99.90
25933;DHT22;13731;51.166;4.474;2022-07-29T05:00:40;16.50;99.90
25933;DHT22;13731;51.166;4.474;2022-07-29T05:03:06;16.50;64.50
25933;DHT22;13731;51.166;4.474;2022-07-29T05:05:32;16.50;88.10
25933;DHT22;13731;51.166;4.474;2022-07-29T05:07:57;16.80;1.00
25933;DHT22;13731;51.166;4.474;2022-07-29T05:10:23;16.80;1.00
25933;DHT22;13731;51.166;4.474;2022-07-29T05:12:49;16.90;1.00
25933;DHT22;13731;51.166;4.474;2022-07-29T05:15:15;16.90;99.90
25933;DHT22;13731;51.166;4.474;2022-07-29T05:17:44;16.90;99.90
25933;DHT22;13731;51.166;4.474;2022-07-29T05:20:10;16.80;99.90
25933;DHT22;13731;51.166;4.474;2022-07-29T05:22:35;16.60;1.00
25933;DHT22;13731;51.166;4.474;2022-07-29T05:25:01;16.60;99.90
25933;DHT22;13731;51.166;4.474;2022-07-29T05:27:28;16.50;1.00
25933;DHT22;13731;51.166;4.474;2022-07-29T05:29:53;16.50;1.00
25933;DHT22;13731;51.166;4.474;2022-07-29T05:32:19;16.60;99.90
25933;DHT22;13731;51.166;4.474;2022-07-29T05:34:45;16.60;1.00
25933;DHT22;13731;51.166;4.474;2022-07-29T05:37:11;16.60;1.00
25933;DHT22;13731;51.166;4.474;2022-07-29T05:39:39;16.70;1.00
25933;DHT22;13731;51.166;4.474;2022-07-29T05:42:11;17.00;91.20
25933;DHT22;13731;51.166;4.474;2022-07-29T05:44:38;17.10;99.90
25933;DHT22;13731;51.166;4.474;2022-07-29T05:47:04;17.20;53.00
25933;DHT22;13731;51.166;4.474;2022-07-29T05:49:29;17.10;99.90
25933;DHT22;13731;51.166;4.474;2022-07-29T05:51:55;17.00;99.90
25933;DHT22;13731;51.166;4.474;2022-07-29T05:54:21;17.00;1.00
25933;DHT22;13731;51.166;4.474;2022-07-29T05:56:49;17.00;99.90
25933;DHT22;13731;51.166;4.474;2022-07-29T05:59:15;17.00;1.00
25933;DHT22;13731;51.166;4.474;2022-07-29T06:01:41;16.90;1.00
25933;DHT22;13731;51.166;4.474;2022-07-29T06:04:07;17.10;1.00
25933;DHT22;13731;51.166;4.474;2022-07-29T06:06:34;17.30;99.90
25933;DHT22;13731;51.166;4.474;2022-07-29T06:09:01;17.50;1.00
25933;DHT22;13731;51.166;4.474;2022-07-29T06:11:27;17.70;99.90
25933;DHT22;13731;51.166;4.474;2022-07-29T06:13:53;17.90;99.90
25933;DHT22;13731;51.166;4.474;2022-07-29T06:16:19;18.10;1.00
25933;DHT22;13731;51.166;4.474;2022-07-29T06:18:45;18.40;1.00
25933;DHT22;13731;51.166;4.474;2022-07-29T06:21:11;18.40;99.90
25933;DHT22;13731;51.166;4.474;2022-07-29T06:23:38;18.40;99.90
25933;DHT22;13731;51.166;4.474;2022-07-29T06:26:05;18.30;99.90
25933;DHT22;13731;51.166;4.474;2022-07-29T06:28:31;18.50;99.90
25933;DHT22;13731;51.166;4.474;2022-07-29T06:30:57;18.70;88.20
25933;DHT22;13731;51.166;4.474;2022-07-29T06:33:23;18.70;99.90
25933;DHT22;13731;51.166;4.474;2022-07-29T06:35:49;18.60;99.90
25933;DHT22;13731;51.166;4.474;2022-07-29T06:38:15;18.60;99.90
25933;DHT22;13731;51.166;4.474;2022-07-29T06:40:43;18.90;1.00
25933;DHT22;13731;51.166;4.474;2022-07-29T06:43:36;18.70;91.60
25933;DHT22;13731;51.166;4.474;2022-07-29T06:46:07;18.70;1.00
25933;DHT22;13731;51.166;4.474;2022-07-29T06:48:34;18.70;1.00
25933;DHT22;13731;51.166;4.474;2022-07-29T06:51:02;18.70;1.00
25933;DHT22;13731;51.166;4.474;2022-07-29T06:53:30;18.70;1.00
25933;DHT22;13731;51.166;4.474;2022-07-29T06:55:56;18.50;99.90
25933;DHT22;13731;51.166;4.474;2022-07-29T06:58:23;18.40;99.90
25933;DHT22;13731;51.166;4.474;2022-07-29T07:00:57;18.70;21.50
25933;DHT22;13731;51.166;4.474;2022-07-29T07:03:24;18.90;1.00
25933;DHT22;13731;51.166;4.474;2022-07-29T07:05:51;18.80;1.00
25933;DHT22;13731;51.166;4.474;2022-07-29T07:08:17;18.80;1.00
25933;DHT22;13731;51.166;4.474;2022-07-29T07:10:45;19.00;1.00
25933;DHT22;13731;51.166;4.474;2022-07-29T07:13:11;18.90;1.00
25933;DHT22;13731;51.166;4.474;2022-07-29T07:15:37;18.90;1.00
25933;DHT22;13731;51.166;4.474;2022-07-29T07:18:04;18.70;51.00
25933;DHT22;13731;51.166;4.474;2022-07-29T07:20:32;18.70;99.90
25933;DHT22;13731;51.166;4.474;2022-07-29T07:22:58;18.80;99.90
25933;DHT22;13731;51.166;4.474;2022-07-29T07:25:24;19.00;1.00
25933;DHT22;13731;51.166;4.474;2022-07-29T07:27:50;19.40;99.90
25933;DHT22;13731;51.166;4.474;2022-07-29T07:30:16;19.60;99.90
25933;DHT22;13731;51.166;4.474;2022-07-29T07:32:42;19.60;99.90
25933;DHT22;13731;51.166;4.474;2022-07-29T07:35:08;19.70;99.90
25933;DHT22;13731;51.166;4.474;2022-07-29T07:37:35;19.80;54.10
25933;DHT22;13731;51.166;4.474;2022-07-29T07:40:01;19.80;56.30
25933;DHT22;13731;51.166;4.474;2022-07-29T07:42:27;19.90;99.90
25933;DHT22;13731;51.166;4.474;2022-07-29T07:44:53;20.10;1.00
25933;DHT22;13731;51.166;4.474;2022-07-29T07:47:19;20.30;1.00
25933;DHT22;13731;51.166;4.474;2022-07-29T07:49:46;20.30;1.00
25933;DHT22;13731;51.166;4.474;2022-07-29T07:52:16;20.50;99.90
25933;DHT22;13731;51.166;4.474;2022-07-29T07:54:42;20.70;99.90
25933;DHT22;13731;51.166;4.474;2022-07-29T07:57:09;20.50;99.90
25933;DHT22;13731;51.166;4.474;2022-07-29T07:59:35;20.50;99.90
25933;DHT22;13731;51.166;4.474;2022-07-29T08:02:00;20.80;99.90
25933;DHT22;13731;51.166;4.474;2022-07-29T08:04:28;20.60;99.90
25933;DHT22;13731;51.166;4.474;2022-07-29T08:06:54;20.90;99.90
25933;DHT22;13731;51.166;4.474;2022-07-29T08:09:21;20.50;99.90
25933;DHT22;13731;51.166;4.474;2022-07-29T08:11:47;20.60;99.90
25933;DHT22;13731;51.166;4.474;2022-07-29T08:14:13;20.80;99.90
25933;DHT22;13731;51.166;4.474;2022-07-29T08:16:40;20.80;99.90
25933;DHT22;13731;51.166;4.474;2022-07-29T08:19:06;21.10;99.90
25933;DHT22;13731;51.166;4.474;2022-07-29T08:21:32;21.20;99.90
25933;DHT22;13731;51.166;4.474;2022-07-29T08:23:58;21.50;1.00
25933;DHT22;13731;51.166;4.474;2022-07-29T08:26:43;21.70;1.00
25933;DHT22;13731;51.166;4.474;2022-07-29T08:29:10;21.50;1.00
25933;DHT22;13731;51.166;4.474;2022-07-29T08:31:37;21.40;1.00
25933;DHT22;13731;51.166;4.474;2022-07-29T08:34:04;21.60;1.00
25933;DHT22;13731;51.166;4.474;2022-07-29T08:36:31;21.60;1.00
25933;DHT22;13731;51.166;4.474;2022-07-29T08:38:57;21.70;1.00
25933;DHT22;13731;51.166;4.474;2022-07-29T08:41:23;21.70;1.00
25933;DHT22;13731;51.166;4.474;2022-07-29T08:43:50;21.80;1.00
25933;DHT22;13731;51.166;4.474;2022-07-29T08:46:16;22.00;1.00
25933;DHT22;13731;51.166;4.474;2022-07-29T08:48:43;22.10;1.00
25933;DHT22;13731;51.166;4.474;2022-07-29T08:51:13;22.40;1.00
25933;DHT22;13731;51.166;4.474;2022-07-29T08:53:42;22.60;99.90
25933;DHT22;13731;51.166;4.474;2022-07-29T08:56:12;22.60;1.00
25933;DHT22;13731;51.166;4.474;2022-07-29T08:58:39;22.60;1.00
25933;DHT22;13731;51.166;4.474;2022-07-29T09:01:09;22.90;99.90
25933;DHT22;13731;51.166;4.474;2022-07-29T09:03:36;23.10;99.90
25933;DHT22;13731;51.166;4.474;2022-07-29T09:06:04;23.20;99.90
25933;DHT22;13731;51.166;4.474;2022-07-29T09:08:34;23.30;99.90
25933;DHT22;13731;51.166;4.474;2022-07-29T09:11:03;23.50;99.90
25933;DHT22;13731;51.166;4.474;2022-07-29T09:13:29;23.50;99.90
25933;DHT22;13731;51.166;4.474;2022-07-29T09:15:55;23.30;99.90
25933;DHT22;13731;51.166;4.474;2022-07-29T09:18:39;23.20;99.90
25933;DHT22;13731;51.166;4.474;2022-07-29T09:21:07;23.10;99.90
25933;DHT22;13731;51.166;4.474;2022-07-29T09:24:02;23.10;99.90
25933;DHT22;13731;51.166;4.474;2022-07-29T09:26:30;23.10;99.90
25933;DHT22;13731;51.166;4.474;2022-07-29T09:28:57;23.10;99.90
25933;DHT22;13731;51.166;4.474;2022-07-29T09:31:34;23.10;99.90
25933;DHT22;13731;51.166;4.474;2022-07-29T09:34:01;23.50;99.90
25933;DHT22;13731;51.166;4.474;2022-07-29T09:36:27;23.70;99.90
25933;DHT22;13731;51.166;4.474;2022-07-29T09:39:02;23.90;99.90
25933;DHT22;13731;51.166;4.474;2022-07-29T09:41:29;24.20;80.50
25933;DHT22;13731;51.166;4.474;2022-07-29T09:43:59;24.40;59.10
25933;DHT22;13731;51.166;4.474;2022-07-29T09:46:25;24.50;32.40
25933;DHT22;13731;51.166;4.474;2022-07-29T09:49:08;24.40;14.60
25933;DHT22;13731;51.166;4.474;2022-07-29T09:51:34;24.30;11.70
25933;DHT22;13731;51.166;4.474;2022-07-29T09:54:01;24.30;1.00
25933;DHT22;13731;51.166;4.474;2022-07-29T09:56:40;24.70;1.00
25933;DHT22;13731;51.166;4.474;2022-07-29T09:59:07;24.40;1.00
25933;DHT22;13731;51.166;4.474;2022-07-29T10:01:34;24.60;1.00
25933;DHT22;13731;51.166;4.474;2022-07-29T10:04:02;24.30;1.00
25933;DHT22;13731;51.166;4.474;2022-07-29T10:06:28;24.60;1.00
25933;DHT22;13731;51.166;4.474;2022-07-29T10:08:54;25.10;1.00
25933;DHT22;13731;51.166;4.474;2022-07-29T10:11:20;25.00;1.00
25933;DHT22;13731;51.166;4.474;2022-07-29T10:13:47;24.70;1.00
25933;DHT22;13731;51.166;4.474;2022-07-29T10:16:15;25.10;1.00
25933;DHT22;13731;51.166;4.474;2022-07-29T10:18:42;26.40;1.00
25933;DHT22;13731;51.166;4.474;2022-07-29T10:21:09;27.90;1.00
25933;DHT22;13731;51.166;4.474;2022-07-29T10:23:36;30.00;1.00
25933;DHT22;13731;51.166;4.474;2022-07-29T10:26:03;31.20;1.00
25933;DHT22;13731;51.166;4.474;2022-07-29T10:28:32;32.00;1.00
25933;DHT22;13731;51.166;4.474;2022-07-29T10:31:00;32.60;1.00
25933;DHT22;13731;51.166;4.474;2022-07-29T10:33:55;33.10;1.00
25933;DHT22;13731;51.166;4.474;2022-07-29T10:36:44;33.30;1.00
25933;DHT22;13731;51.166;4.474;2022-07-29T10:44:33;32.00;1.00
25933;DHT22;13731;51.166;4.474;2022-07-29T10:46:59;33.00;1.00
25933;DHT22;13731;51.166;4.474;2022-07-29T10:49:27;34.10;1.00
25933;DHT22;13731;51.166;4.474;2022-07-29T10:59:50;35.30;1.00
25933;DHT22;13731;51.166;4.474;2022-07-29T11:07:25;36.40;1.00
25933;DHT22;13731;51.166;4.474;2022-07-29T11:15:11;34.80;1.00
25933;DHT22;13731;51.166;4.474;2022-07-29T11:20:40;33.90;1.00
25933;DHT22;13731;51.166;4.474;2022-07-29T11:23:27;34.10;1.00
25933;DHT22;13731;51.166;4.474;2022-07-29T11:29:03;36.40;1.00
25933;DHT22;13731;51.166;4.474;2022-07-29T11:31:41;34.50;1.00
25933;DHT22;13731;51.166;4.474;2022-07-29T11:34:24;34.30;1.00
25933;DHT22;13731;51.166;4.474;2022-07-29T11:37:17;34.30;1.00
25933;DHT22;13731;51.166;4.474;2022-07-29T11:47:27;38.50;1.00
25933;DHT22;13731;51.166;4.474;2022-07-29T11:49:54;38.80;1.00
25933;DHT22;13731;51.166;4.474;2022-07-29T11:52:21;37.20;1.00
25933;DHT22;13731;51.166;4.474;2022-07-29T11:54:48;36.90;1.00
25933;DHT22;13731;51.166;4.474;2022-07-29T11:57:18;36.90;1.00
25933;DHT22;13731;51.166;4.474;2022-07-29T11:59:46;37.90;1.00
25933;DHT22;13731;51.166;4.474;2022-07-29T12:02:13;36.60;1.00
25933;DHT22;13731;51.166;4.474;2022-07-29T12:04:49;35.60;1.00
25933;DHT22;13731;51.166;4.474;2022-07-29T12:07:15;37.50;1.00
25933;DHT22;13731;51.166;4.474;2022-07-29T12:09:50;37.90;1.00
25933;DHT22;13731;51.166;4.474;2022-07-29T12:12:17;38.90;1.00
25933;DHT22;13731;51.166;4.474;2022-07-29T12:14:43;39.50;1.00
25933;DHT22;13731;51.166;4.474;2022-07-29T12:17:34;38.00;1.00
25933;DHT22;13731;51.166;4.474;2022-07-29T12:20:04;35.20;1.00
25933;DHT22;13731;51.166;4.474;2022-07-29T12:22:32;33.10;1.00
25933;DHT22;13731;51.166;4.474;2022-07-29T12:27:36;31.60;1.00
25933;DHT22;13731;51.166;4.474;2022-07-29T12:30:08;33.30;1.00
25933;DHT22;13731;51.166;4.474;2022-07-29T12:32:35;33.90;1.00
25933;DHT22;13731;51.166;4.474;2022-07-29T12:35:08;32.80;1.00
25933;DHT22;13731;51.166;4.474;2022-07-29T12:37:35;31.80;1.00
25933;DHT22;13731;51.166;4.474;2022-07-29T12:40:03;30.60;1.00
25933;DHT22;13731;51.166;4.474;2022-07-29T12:42:30;30.50;1.00
25933;DHT22;13731;51.166;4.474;2022-07-29T12:44:56;29.90;1.00
25933;DHT22;13731;51.166;4.474;2022-07-29T12:47:22;31.50;1.00
25933;DHT22;13731;51.166;4.474;2022-07-29T12:49:49;33.70;1.00
25933;DHT22;13731;51.166;4.474;2022-07-29T12:52:34;35.30;1.00
25933;DHT22;13731;51.166;4.474;2022-07-29T12:55:00;35.60;1.00
25933;DHT22;13731;51.166;4.474;2022-07-29T12:57:27;34.90;1.00
25933;DHT22;13731;51.166;4.474;2022-07-29T13:02:34;34.90;1.00
25933;DHT22;13731;51.166;4.474;2022-07-29T13:05:00;34.90;1.00
25933;DHT22;13731;51.166;4.474;2022-07-29T13:07:29;36.00;1.00
25933;DHT22;13731;51.166;4.474;2022-07-29T13:10:18;36.10;1.00
25933;DHT22;13731;51.166;4.474;2022-07-29T13:15:32;35.80;1.00
25933;DHT22;13731;51.166;4.474;2022-07-29T13:17:59;34.90;1.00
25933;DHT22;13731;51.166;4.474;2022-07-29T13:20:27;36.00;1.00
25933;DHT22;13731;51.166;4.474;2022-07-29T13:22:56;36.00;1.00
25933;DHT22;13731;51.166;4.474;2022-07-29T13:25:32;36.00;1.00
25933;DHT22;13731;51.166;4.474;2022-07-29T13:27:59;37.20;1.00
25933;DHT22;13731;51.166;4.474;2022-07-29T13:30:25;37.50;1.00
25933;DHT22;13731;51.166;4.474;2022-07-29T13:32:52;38.90;1.00
25933;DHT22;13731;51.166;4.474;2022-07-29T13:35:19;38.30;1.00
25933;DHT22;13731;51.166;4.474;2022-07-29T13:37:45;38.30;1.00
25933;DHT22;13731;51.166;4.474;2022-07-29T13:40:12;38.00;1.00
25933;DHT22;13731;51.166;4.474;2022-07-29T13:42:39;37.10;1.00
25933;DHT22;13731;51.166;4.474;2022-07-29T13:45:06;36.60;1.00
25933;DHT22;13731;51.166;4.474;2022-07-29T13:47:32;37.20;1.00
25933;DHT22;13731;51.166;4.474;2022-07-29T13:49:58;36.70;1.00
25933;DHT22;13731;51.166;4.474;2022-07-29T13:52:24;36.80;1.00
25933;DHT22;13731;51.166;4.474;2022-07-29T13:54:50;37.10;1.00
25933;DHT22;13731;51.166;4.474;2022-07-29T13:57:16;37.40;1.00
25933;DHT22;13731;51.166;4.474;2022-07-29T13:59:42;36.80;1.00
25933;DHT22;13731;51.166;4.474;2022-07-29T14:02:09;35.70;1.00
25933;DHT22;13731;51.166;4.474;2022-07-29T14:04:35;35.50;1.00
25933;DHT22;13731;51.166;4.474;2022-07-29T14:07:02;35.70;1.00
25933;DHT22;13731;51.166;4.474;2022-07-29T14:09:28;35.20;1.00
25933;DHT22;13731;51.166;4.474;2022-07-29T14:11:54;36.00;1.00
25933;DHT22;13731;51.166;4.474;2022-07-29T14:14:20;37.00;1.00
25933;DHT22;13731;51.166;4.474;2022-07-29T14:16:46;36.90;1.00
25933;DHT22;13731;51.166;4.474;2022-07-29T14:19:12;37.70;1.00
25933;DHT22;13731;51.166;4.474;2022-07-29T14:21:38;38.30;1.00
25933;DHT22;13731;51.166;4.474;2022-07-29T14:24:05;39.10;1.00
25933;DHT22;13731;51.166;4.474;2022-07-29T14:26:31;39.20;1.00
25933;DHT22;13731;51.166;4.474;2022-07-29T14:28:57;38.20;1.00
25933;DHT22;13731;51.166;4.474;2022-07-29T14:31:23;36.70;1.00
25933;DHT22;13731;51.166;4.474;2022-07-29T14:33:49;36.90;1.00
25933;DHT22;13731;51.166;4.474;2022-07-29T14:36:15;36.60;1.00
25933;DHT22;13731;51.166;4.474;2022-07-29T14:38:41;36.60;1.00
25933;DHT22;13731;51.166;4.474;2022-07-29T14:41:07;37.20;1.00
25933;DHT22;13731;51.166;4.474;2022-07-29T14:43:34;37.40;1.00
25933;DHT22;13731;51.166;4.474;2022-07-29T14:46:01;37.80;1.00
25933;DHT22;13731;51.166;4.474;2022-07-29T14:48:27;37.10;1.00
25933;DHT22;13731;51.166;4.474;2022-07-29T14:50:53;37.10;1.00
25933;DHT22;13731;51.166;4.474;2022-07-29T14:53:20;36.60;1.00
25933;DHT22;13731;51.166;4.474;2022-07-29T14:55:46;37.10;1.00
25933;DHT22;13731;51.166;4.474;2022-07-29T14:58:11;37.50;1.00
25933;DHT22;13731;51.166;4.474;2022-07-29T15:00:37;38.50;1.00
25933;DHT22;13731;51.166;4.474;2022-07-29T15:03:03;38.20;1.00
25933;DHT22;13731;51.166;4.474;2022-07-29T15:05:30;37.20;1.00
25933;DHT22;13731;51.166;4.474;2022-07-29T15:07:56;36.40;1.00
25933;DHT22;13731;51.166;4.474;2022-07-29T15:10:22;35.80;1.00
25933;DHT22;13731;51.166;4.474;2022-07-29T15:12:48;36.60;1.00
25933;DHT22;13731;51.166;4.474;2022-07-29T15:15:14;37.20;1.00
25933;DHT22;13731;51.166;4.474;2022-07-29T15:17:39;37.90;1.00
25933;DHT22;13731;51.166;4.474;2022-07-29T15:20:06;38.40;1.00
25933;DHT22;13731;51.166;4.474;2022-07-29T15:22:32;38.50;1.00
25933;DHT22;13731;51.166;4.474;2022-07-29T15:24:57;39.20;1.00
25933;DHT22;13731;51.166;4.474;2022-07-29T15:27:23;39.40;1.00
25933;DHT22;13731;51.166;4.474;2022-07-29T15:29:49;39.80;1.00
25933;DHT22;13731;51.166;4.474;2022-07-29T15:32:15;40.30;1.00
25933;DHT22;13731;51.166;4.474;2022-07-29T15:34:41;40.10;1.00
25933;DHT22;13731;51.166;4.474;2022-07-29T15:37:07;39.60;1.00
25933;DHT22;13731;51.166;4.474;2022-07-29T15:39:33;40.40;1.00
25933;DHT22;13731;51.166;4.474;2022-07-29T15:41:58;39.90;1.00
25933;DHT22;13731;51.166;4.474;2022-07-29T15:44:25;40.00;1.00
25933;DHT22;13731;51.166;4.474;2022-07-29T15:46:51;40.20;1.00
25933;DHT22;13731;51.166;4.474;2022-07-29T15:49:35;40.90;1.00
25933;DHT22;13731;51.166;4.474;2022-07-29T15:52:07;40.70;1.00
25933;DHT22;13731;51.166;4.474;2022-07-29T15:54:39;40.60;1.00
25933;DHT22;13731;51.166;4.474;2022-07-29T15:57:08;40.60;1.00
25933;DHT22;13731;51.166;4.474;2022-07-29T15:59:34;40.20;1.00
25933;DHT22;13731;51.166;4.474;2022-07-29T16:02:00;40.40;1.00
25933;DHT22;13731;51.166;4.474;2022-07-29T16:04:26;39.50;1.00
25933;DHT22;13731;51.166;4.474;2022-07-29T16:06:53;37.90;1.00
25933;DHT22;13731;51.166;4.474;2022-07-29T16:09:19;36.90;1.00
25933;DHT22;13731;51.166;4.474;2022-07-29T16:11:45;37.10;1.00
25933;DHT22;13731;51.166;4.474;2022-07-29T16:14:13;36.60;1.00
25933;DHT22;13731;51.166;4.474;2022-07-29T16:16:39;37.20;1.00
25933;DHT22;13731;51.166;4.474;2022-07-29T16:19:06;37.80;1.00
25933;DHT22;13731;51.166;4.474;2022-07-29T16:21:34;38.30;1.00
25933;DHT22;13731;51.166;4.474;2022-07-29T16:24:00;39.10;1.00
25933;DHT22;13731;51.166;4.474;2022-07-29T16:26:26;38.70;1.00
25933;DHT22;13731;51.166;4.474;2022-07-29T16:28:53;37.60;1.00
25933;DHT22;13731;51.166;4.474;2022-07-29T16:31:19;36.80;1.00
25933;DHT22;13731;51.166;4.474;2022-07-29T16:33:51;36.30;1.00
25933;DHT22;13731;51.166;4.474;2022-07-29T16:36:17;36.20;1.00
25933;DHT22;13731;51.166;4.474;2022-07-29T16:38:44;36.70;1.00
25933;DHT22;13731;51.166;4.474;2022-07-29T16:41:10;36.30;1.00
25933;DHT22;13731;51.166;4.474;2022-07-29T16:43:36;36.40;1.00
25933;DHT22;13731;51.166;4.474;2022-07-29T16:46:02;36.50;1.00